createdAt,value
2019-03-24T00:00:02.570Z,88.482666
2019-03-24T00:00:14.338Z,88.482666
2019-03-24T00:00:26.115Z,88.586426
2019-03-24T00:00:37.881Z,88.586426
2019-03-24T00:00:49.666Z,88.690186
2019-03-24T00:01:01.460Z,88.793945
2019-03-24T00:01:13.244Z,88.94043
2019-03-24T00:01:25.015Z,88.94043
2019-03-24T00:01:41.285Z,89.044189
2019-03-24T00:01:49.508Z,89.147949
2019-03-24T00:02:01.277Z,89.147949
2019-03-24T00:02:13.034Z,89.251709
2019-03-24T00:02:24.796Z,89.355469
2019-03-24T00:02:36.578Z,89.459229
2019-03-24T00:02:48.366Z,89.459229
2019-03-24T00:03:00.133Z,89.562988
2019-03-24T00:03:11.886Z,89.562988
2019-03-24T00:03:23.654Z,89.666748
2019-03-24T00:03:35.417Z,89.770508
2019-03-24T00:03:47.187Z,89.874268
2019-03-24T00:03:58.974Z,89.978027
2019-03-24T00:04:10.779Z,90.081787
2019-03-24T00:04:22.540Z,90.142822
2019-03-24T00:04:34.325Z,90.142822
2019-03-24T00:04:46.089Z,90.246582
2019-03-24T00:04:57.836Z,90.246582
2019-03-24T00:05:09.612Z,90.350342
2019-03-24T00:05:21.359Z,90.350342
2019-03-24T00:05:33.147Z,90.350342
2019-03-24T00:05:44.931Z,90.350342
2019-03-24T00:05:56.818Z,90.350342
2019-03-24T00:06:08.593Z,90.454102
2019-03-24T00:06:20.331Z,90.454102
2019-03-24T00:06:32.093Z,90.350342
2019-03-24T00:06:43.865Z,90.350342
2019-03-24T00:06:55.623Z,90.350342
2019-03-24T00:07:07.411Z,90.350342
2019-03-24T00:07:19.172Z,90.350342
2019-03-24T00:07:30.965Z,90.246582
2019-03-24T00:07:42.733Z,90.203857
2019-03-24T00:07:56.719Z,90.203857
2019-03-24T00:08:06.320Z,90.203857
2019-03-24T00:08:18.078Z,90.100098
2019-03-24T00:08:29.858Z,90.100098
2019-03-24T00:08:41.610Z,90.100098
2019-03-24T00:08:53.381Z,89.996338
2019-03-24T00:09:05.150Z,89.892578
2019-03-24T00:09:16.906Z,89.892578
2019-03-24T00:09:28.698Z,89.892578
2019-03-24T00:09:40.454Z,89.788818
2019-03-24T00:09:52.218Z,89.685059
2019-03-24T00:10:04.005Z,89.685059
2019-03-24T00:10:15.780Z,89.581299
2019-03-24T00:10:27.534Z,89.581299
2019-03-24T00:10:39.314Z,89.581299
2019-03-24T00:10:51.077Z,89.581299
2019-03-24T00:11:02.862Z,89.581299
2019-03-24T00:11:14.651Z,89.581299
2019-03-24T00:11:26.419Z,89.483643
2019-03-24T00:11:38.196Z,89.483643
2019-03-24T00:11:50.003Z,89.483643
2019-03-24T00:12:01.773Z,89.483643
2019-03-24T00:12:13.557Z,89.483643
2019-03-24T00:12:25.315Z,89.483643
2019-03-24T00:12:37.119Z,89.483643
2019-03-24T00:12:48.874Z,89.379883
2019-03-24T00:13:00.674Z,89.379883
2019-03-24T00:13:12.445Z,89.379883
2019-03-24T00:13:24.981Z,89.379883
2019-03-24T00:13:35.968Z,89.379883
2019-03-24T00:13:47.727Z,89.483643
2019-03-24T00:13:59.495Z,89.483643
2019-03-24T00:14:11.296Z,89.483643
2019-03-24T00:14:23.052Z,89.379883
2019-03-24T00:14:34.805Z,89.379883
2019-03-24T00:14:46.574Z,89.379883
2019-03-24T00:14:58.349Z,89.379883
2019-03-24T00:15:10.112Z,89.276123
2019-03-24T00:15:26.402Z,89.233398
2019-03-24T00:15:34.675Z,89.129639
2019-03-24T00:15:46.431Z,89.129639
2019-03-24T00:15:58.244Z,89.025879
2019-03-24T00:16:09.999Z,88.922119
2019-03-24T00:16:21.763Z,88.922119
2019-03-24T00:16:33.534Z,88.818359
2019-03-24T00:16:45.335Z,88.818359
2019-03-24T00:16:57.090Z,88.7146
2019-03-24T00:17:08.880Z,88.7146
2019-03-24T00:17:20.650Z,88.7146
2019-03-24T00:17:32.411Z,88.61084
2019-03-24T00:17:44.191Z,88.61084
2019-03-24T00:17:55.979Z,88.50708
2019-03-24T00:18:07.740Z,88.40332
2019-03-24T00:18:19.503Z,88.299561
2019-03-24T00:18:31.267Z,88.195801
2019-03-24T00:18:43.060Z,88.15918
2019-03-24T00:18:54.819Z,87.95166
2019-03-24T00:19:06.580Z,87.8479
2019-03-24T00:19:18.372Z,87.536621
2019-03-24T00:19:30.111Z,87.225342
2019-03-24T00:19:41.874Z,86.810303
2019-03-24T00:19:53.679Z,86.602783
2019-03-24T00:20:05.446Z,86.395264
2019-03-24T00:20:17.197Z,86.187744
2019-03-24T00:20:28.961Z,86.090088
2019-03-24T00:20:40.771Z,85.882568
2019-03-24T00:20:52.552Z,85.778809
2019-03-24T00:21:04.317Z,85.571289
2019-03-24T00:21:16.106Z,85.571289
2019-03-24T00:21:27.854Z,85.467529
2019-03-24T00:21:39.626Z,85.467529
2019-03-24T00:21:51.400Z,85.36377
2019-03-24T00:22:03.178Z,85.36377
2019-03-24T00:22:14.983Z,85.36377
2019-03-24T00:22:26.731Z,85.26001
2019-03-24T00:22:38.528Z,85.36377
2019-03-24T00:22:50.272Z,85.36377
2019-03-24T00:23:02.024Z,85.36377
2019-03-24T00:23:13.781Z,85.36377
2019-03-24T00:23:25.561Z,85.36377
2019-03-24T00:23:37.347Z,85.36377
2019-03-24T00:23:49.089Z,85.36377
2019-03-24T00:24:00.873Z,85.26001
2019-03-24T00:24:12.646Z,85.26001
2019-03-24T00:24:24.428Z,85.26001
2019-03-24T00:24:36.190Z,85.15625
2019-03-24T00:24:47.961Z,85.05249
2019-03-24T00:24:59.739Z,84.94873
2019-03-24T00:25:11.480Z,84.94873
2019-03-24T00:25:23.276Z,84.844971
2019-03-24T00:25:35.040Z,84.844971
2019-03-24T00:25:46.792Z,84.741211
2019-03-24T00:25:58.554Z,84.741211
2019-03-24T00:26:10.316Z,84.741211
2019-03-24T00:26:23.491Z,84.783936
2019-03-24T00:26:33.875Z,84.881592
2019-03-24T00:26:45.634Z,84.881592
2019-03-24T00:26:57.422Z,84.985352
2019-03-24T00:27:09.181Z,85.192871
2019-03-24T00:27:20.994Z,85.296631
2019-03-24T00:27:32.727Z,85.400391
2019-03-24T00:27:44.490Z,85.60791
2019-03-24T00:27:56.241Z,85.81543
2019-03-24T00:28:08.021Z,86.022949
2019-03-24T00:28:19.794Z,86.126709
2019-03-24T00:28:31.555Z,86.37085
2019-03-24T00:28:43.328Z,86.474609
2019-03-24T00:28:55.092Z,86.682129
2019-03-24T00:29:06.887Z,86.785889
2019-03-24T00:29:18.666Z,86.993408
2019-03-24T00:29:30.438Z,87.097168
2019-03-24T00:29:42.230Z,87.200928
2019-03-24T00:29:53.984Z,87.304688
2019-03-24T00:30:09.994Z,87.408447
2019-03-24T00:30:21.756Z,87.512207
2019-03-24T00:30:33.522Z,87.512207
2019-03-24T00:30:45.287Z,87.615967
2019-03-24T00:30:57.067Z,87.615967
2019-03-24T00:31:08.857Z,87.719727
2019-03-24T00:31:20.604Z,87.615967
2019-03-24T00:31:32.403Z,87.719727
2019-03-24T00:31:44.222Z,87.677002
2019-03-24T00:31:56.005Z,87.677002
2019-03-24T00:32:07.780Z,87.677002
2019-03-24T00:32:19.558Z,87.677002
2019-03-24T00:32:32.316Z,87.573242
2019-03-24T00:32:44.101Z,87.573242
2019-03-24T00:32:55.867Z,87.573242
2019-03-24T00:33:07.619Z,87.469482
2019-03-24T00:33:19.428Z,87.469482
2019-03-24T00:33:31.208Z,87.371826
2019-03-24T00:33:42.963Z,87.268066
2019-03-24T00:33:54.753Z,87.121582
2019-03-24T00:34:06.554Z,87.121582
2019-03-24T00:34:18.326Z,87.060547
2019-03-24T00:34:30.113Z,86.914062
2019-03-24T00:34:41.888Z,86.810303
2019-03-24T00:34:53.683Z,86.810303
2019-03-24T00:35:05.515Z,86.853027
2019-03-24T00:35:17.225Z,86.956787
2019-03-24T00:35:29.003Z,86.956787
2019-03-24T00:35:40.772Z,86.956787
2019-03-24T00:35:52.540Z,86.956787
2019-03-24T00:36:05.310Z,87.060547
2019-03-24T00:36:17.062Z,87.060547
2019-03-24T00:36:28.840Z,87.164307
2019-03-24T00:36:40.616Z,87.164307
2019-03-24T00:36:52.420Z,87.268066
2019-03-24T00:37:04.199Z,87.268066
2019-03-24T00:37:15.962Z,87.371826
2019-03-24T00:37:27.726Z,87.371826
2019-03-24T00:37:39.507Z,87.371826
2019-03-24T00:37:51.265Z,87.371826
2019-03-24T00:38:03.027Z,87.469482
2019-03-24T00:38:14.812Z,87.469482
2019-03-24T00:38:26.594Z,87.469482
2019-03-24T00:38:38.355Z,87.469482
2019-03-24T00:38:50.127Z,87.573242
2019-03-24T00:39:01.879Z,87.573242
2019-03-24T00:39:13.699Z,87.573242
2019-03-24T00:39:25.498Z,87.536621
2019-03-24T00:39:37.265Z,87.536621
2019-03-24T00:39:49.008Z,87.536621
2019-03-24T00:40:00.802Z,87.536621
2019-03-24T00:40:12.555Z,87.536621
2019-03-24T00:40:24.332Z,87.536621
2019-03-24T00:40:36.104Z,87.536621
2019-03-24T00:40:48.848Z,87.536621
2019-03-24T00:41:00.621Z,87.536621
2019-03-24T00:41:12.383Z,87.536621
2019-03-24T00:41:24.161Z,87.536621
2019-03-24T00:41:35.929Z,87.536621
2019-03-24T00:41:47.695Z,87.536621
2019-03-24T00:41:59.463Z,87.432861
2019-03-24T00:42:11.231Z,87.432861
2019-03-24T00:42:23.051Z,87.432861
2019-03-24T00:42:34.855Z,87.329102
2019-03-24T00:42:46.618Z,87.329102
2019-03-24T00:42:58.404Z,87.329102
2019-03-24T00:43:10.168Z,87.329102
2019-03-24T00:43:21.943Z,87.329102
2019-03-24T00:43:33.698Z,87.329102
2019-03-24T00:43:45.463Z,87.329102
2019-03-24T00:43:57.244Z,87.329102
2019-03-24T00:44:09.003Z,87.329102
2019-03-24T00:44:20.802Z,87.329102
2019-03-24T00:44:32.537Z,87.329102
2019-03-24T00:44:44.310Z,87.225342
2019-03-24T00:44:56.064Z,87.225342
2019-03-24T00:45:07.857Z,87.121582
2019-03-24T00:45:19.632Z,87.121582
2019-03-24T00:45:36.636Z,87.121582
2019-03-24T00:45:44.151Z,87.121582
2019-03-24T00:45:55.890Z,87.121582
2019-03-24T00:46:07.691Z,87.121582
2019-03-24T00:46:19.455Z,87.121582
2019-03-24T00:46:31.240Z,87.121582
2019-03-24T00:46:43.005Z,87.121582
2019-03-24T00:46:54.758Z,87.121582
2019-03-24T00:47:06.548Z,87.060547
2019-03-24T00:47:18.332Z,87.060547
2019-03-24T00:47:30.124Z,87.060547
2019-03-24T00:47:41.901Z,87.060547
2019-03-24T00:47:53.665Z,87.060547
2019-03-24T00:48:05.457Z,87.060547
2019-03-24T00:48:17.210Z,87.164307
2019-03-24T00:48:28.979Z,87.164307
2019-03-24T00:48:40.766Z,87.164307
2019-03-24T00:48:52.542Z,87.268066
2019-03-24T00:49:04.302Z,87.268066
2019-03-24T00:49:16.059Z,87.371826
2019-03-24T00:49:27.840Z,87.371826
2019-03-24T00:49:39.649Z,87.371826
2019-03-24T00:49:51.405Z,87.371826
2019-03-24T00:50:03.159Z,87.469482
2019-03-24T00:50:14.943Z,87.573242
2019-03-24T00:50:26.707Z,87.615967
2019-03-24T00:50:38.470Z,87.719727
2019-03-24T00:50:50.249Z,87.719727
2019-03-24T00:51:02.044Z,87.823486
2019-03-24T00:51:13.818Z,87.927246
2019-03-24T00:51:25.555Z,87.927246
2019-03-24T00:51:37.352Z,88.031006
2019-03-24T00:51:49.083Z,88.031006
2019-03-24T00:52:00.847Z,88.031006
2019-03-24T00:52:12.619Z,88.134766
2019-03-24T00:52:24.385Z,88.17749
2019-03-24T00:52:36.164Z,88.17749
2019-03-24T00:52:47.920Z,88.28125
2019-03-24T00:52:59.680Z,88.28125
2019-03-24T00:53:11.493Z,88.28125
2019-03-24T00:53:23.271Z,88.38501
2019-03-24T00:53:35.076Z,88.38501
2019-03-24T00:53:46.844Z,88.482666
2019-03-24T00:53:58.617Z,88.586426
2019-03-24T00:54:10.381Z,88.586426
2019-03-24T00:54:22.171Z,88.690186
2019-03-24T00:54:33.918Z,88.690186
2019-03-24T00:54:45.694Z,88.793945
2019-03-24T00:54:57.456Z,88.793945
2019-03-24T00:55:09.220Z,88.793945
2019-03-24T00:55:21.009Z,88.897705
2019-03-24T00:55:32.799Z,88.897705
2019-03-24T00:55:44.557Z,88.897705
2019-03-24T00:55:56.362Z,88.897705
2019-03-24T00:56:08.150Z,88.897705
2019-03-24T00:56:19.930Z,88.897705
2019-03-24T00:56:31.704Z,88.897705
2019-03-24T00:56:43.474Z,89.001465
2019-03-24T00:56:55.228Z,89.001465
2019-03-24T00:57:07.012Z,89.001465
2019-03-24T00:57:18.800Z,89.001465
2019-03-24T00:57:30.561Z,89.001465
2019-03-24T00:57:42.328Z,89.001465
2019-03-24T00:57:54.099Z,89.105225
2019-03-24T00:58:06.888Z,89.105225
2019-03-24T00:58:18.635Z,89.105225
2019-03-24T00:58:30.399Z,89.105225
2019-03-24T00:58:42.141Z,89.105225
2019-03-24T00:58:53.915Z,89.105225
2019-03-24T00:59:06.690Z,89.105225
2019-03-24T00:59:18.441Z,89.105225
2019-03-24T00:59:30.212Z,89.001465
2019-03-24T00:59:41.990Z,89.105225
2019-03-24T00:59:53.758Z,89.105225
2019-03-24T01:00:05.507Z,89.208984
2019-03-24T01:00:18.287Z,89.208984
2019-03-24T01:00:30.051Z,89.312744
2019-03-24T01:00:41.817Z,89.416504
2019-03-24T01:00:53.584Z,89.520264
2019-03-24T01:01:05.352Z,89.624023
2019-03-24T01:01:17.145Z,89.624023
2019-03-24T01:01:28.920Z,89.727783
2019-03-24T01:01:40.693Z,89.831543
2019-03-24T01:01:52.451Z,89.874268
2019-03-24T01:02:04.195Z,89.978027
2019-03-24T01:02:15.963Z,90.081787
2019-03-24T01:02:27.711Z,90.185547
2019-03-24T01:02:39.489Z,90.185547
2019-03-24T01:02:51.255Z,90.289307
2019-03-24T01:03:03.022Z,90.393066
2019-03-24T01:03:14.776Z,90.496826
2019-03-24T01:03:26.537Z,90.600586
2019-03-24T01:03:38.302Z,90.600586
2019-03-24T01:03:50.048Z,90.704346
2019-03-24T01:04:01.806Z,90.808105
2019-03-24T01:04:13.588Z,90.808105
2019-03-24T01:04:25.368Z,90.808105
2019-03-24T01:04:37.295Z,90.911865
2019-03-24T01:04:49.066Z,91.015625
2019-03-24T01:05:00.826Z,91.015625
2019-03-24T01:05:12.572Z,91.119385
2019-03-24T01:05:24.347Z,91.223145
2019-03-24T01:05:36.107Z,91.223145
2019-03-24T01:05:47.863Z,91.326904
2019-03-24T01:06:01.748Z,91.326904
2019-03-24T01:06:11.361Z,91.430664
2019-03-24T01:06:23.147Z,91.430664
2019-03-24T01:06:34.929Z,91.430664
2019-03-24T01:06:46.698Z,91.534424
2019-03-24T01:06:58.475Z,91.534424
2019-03-24T01:07:10.265Z,91.534424
2019-03-24T01:07:22.038Z,91.534424
2019-03-24T01:07:33.807Z,91.534424
2019-03-24T01:07:45.576Z,91.534424
2019-03-24T01:07:57.348Z,91.534424
2019-03-24T01:08:09.108Z,91.534424
2019-03-24T01:08:20.867Z,91.430664
2019-03-24T01:08:32.640Z,91.430664
2019-03-24T01:08:44.416Z,91.430664
2019-03-24T01:08:56.174Z,91.430664
2019-03-24T01:09:07.952Z,91.430664
2019-03-24T01:09:19.734Z,91.430664
2019-03-24T01:09:31.500Z,91.430664
2019-03-24T01:09:43.276Z,91.430664
2019-03-24T01:09:55.079Z,91.326904
2019-03-24T01:10:06.845Z,91.28418
2019-03-24T01:10:18.616Z,91.28418
2019-03-24T01:10:30.417Z,91.28418
2019-03-24T01:10:42.149Z,91.28418
2019-03-24T01:10:53.920Z,91.28418
2019-03-24T01:11:05.704Z,91.28418
2019-03-24T01:11:17.482Z,91.18042
2019-03-24T01:11:29.264Z,91.18042
2019-03-24T01:11:41.014Z,91.18042
2019-03-24T01:11:52.783Z,91.18042
2019-03-24T01:12:04.553Z,91.07666
2019-03-24T01:12:16.344Z,91.033936
2019-03-24T01:12:28.101Z,90.930176
2019-03-24T01:12:39.861Z,90.930176
2019-03-24T01:12:51.636Z,90.826416
2019-03-24T01:13:03.396Z,90.722656
2019-03-24T01:13:15.157Z,90.618896
2019-03-24T01:13:26.908Z,90.618896
2019-03-24T01:13:38.668Z,90.515137
2019-03-24T01:13:50.461Z,90.411377
2019-03-24T01:14:02.214Z,90.307617
2019-03-24T01:14:14.010Z,90.161133
2019-03-24T01:14:25.766Z,90.063477
2019-03-24T01:14:37.521Z,90.063477
2019-03-24T01:14:49.308Z,89.959717
2019-03-24T01:15:01.084Z,89.855957
2019-03-24T01:15:12.875Z,89.752197
2019-03-24T01:15:24.646Z,89.648438
2019-03-24T01:15:47.082Z,89.440918
2019-03-24T01:15:49.137Z,89.233398
2019-03-24T01:16:00.885Z,89.129639
2019-03-24T01:16:12.632Z,88.922119
2019-03-24T01:16:24.401Z,88.818359
2019-03-24T01:16:36.156Z,88.7146
2019-03-24T01:16:47.923Z,88.61084
2019-03-24T01:16:59.704Z,88.50708
2019-03-24T01:17:11.471Z,88.40332
2019-03-24T01:17:23.254Z,88.40332
2019-03-24T01:17:35.022Z,88.299561
2019-03-24T01:17:46.809Z,88.299561
2019-03-24T01:17:59.583Z,88.299561
2019-03-24T01:18:11.334Z,88.195801
2019-03-24T01:18:23.124Z,88.195801
2019-03-24T01:18:34.882Z,88.299561
2019-03-24T01:18:46.649Z,88.299561
2019-03-24T01:18:58.420Z,88.40332
2019-03-24T01:19:10.189Z,88.40332
2019-03-24T01:19:21.937Z,88.446045
2019-03-24T01:19:33.740Z,88.549805
2019-03-24T01:19:45.514Z,88.549805
2019-03-24T01:19:57.426Z,88.549805
2019-03-24T01:20:09.184Z,88.653564
2019-03-24T01:20:20.959Z,88.757324
2019-03-24T01:20:32.716Z,88.861084
2019-03-24T01:20:44.544Z,88.861084
2019-03-24T01:20:56.292Z,88.964844
2019-03-24T01:21:08.072Z,88.964844
2019-03-24T01:21:19.834Z,89.068604
2019-03-24T01:21:31.587Z,89.172363
2019-03-24T01:21:43.352Z,89.172363
2019-03-24T01:21:55.107Z,89.276123
2019-03-24T01:22:06.868Z,89.276123
2019-03-24T01:22:18.624Z,89.276123
2019-03-24T01:22:30.404Z,89.276123
2019-03-24T01:22:42.183Z,89.276123
2019-03-24T01:22:53.957Z,89.276123
2019-03-24T01:23:05.755Z,89.379883
2019-03-24T01:23:17.521Z,89.379883
2019-03-24T01:23:29.312Z,89.379883
2019-03-24T01:23:41.054Z,89.379883
2019-03-24T01:23:52.818Z,89.379883
2019-03-24T01:24:04.599Z,89.379883
2019-03-24T01:24:16.366Z,89.379883
2019-03-24T01:24:28.144Z,89.483643
2019-03-24T01:24:39.914Z,89.379883
2019-03-24T01:24:51.690Z,89.379883
2019-03-24T01:25:03.487Z,89.379883
2019-03-24T01:25:15.269Z,89.379883
2019-03-24T01:25:27.037Z,89.276123
2019-03-24T01:25:38.812Z,89.276123
2019-03-24T01:25:50.600Z,89.276123
2019-03-24T01:26:02.362Z,89.172363
2019-03-24T01:26:14.144Z,89.172363
2019-03-24T01:26:25.921Z,89.172363
2019-03-24T01:26:37.691Z,89.129639
2019-03-24T01:26:49.449Z,89.129639
2019-03-24T01:27:01.237Z,89.025879
2019-03-24T01:27:12.976Z,89.025879
2019-03-24T01:27:24.730Z,88.922119
2019-03-24T01:27:36.464Z,88.922119
2019-03-24T01:27:48.218Z,88.818359
2019-03-24T01:27:59.980Z,88.818359
2019-03-24T01:28:12.734Z,88.818359
2019-03-24T01:28:24.489Z,88.818359
2019-03-24T01:28:36.269Z,88.818359
2019-03-24T01:28:48.060Z,88.818359
2019-03-24T01:28:59.854Z,88.818359
2019-03-24T01:29:11.604Z,88.818359
2019-03-24T01:29:23.363Z,88.818359
2019-03-24T01:29:35.142Z,88.818359
2019-03-24T01:29:46.917Z,88.818359
2019-03-24T01:29:58.734Z,88.818359
2019-03-24T01:30:10.483Z,88.818359
2019-03-24T01:30:22.259Z,88.818359
2019-03-24T01:30:34.052Z,88.861084
2019-03-24T01:30:45.822Z,88.818359
2019-03-24T01:30:57.607Z,88.861084
2019-03-24T01:31:09.418Z,88.861084
2019-03-24T01:31:22.193Z,88.861084
2019-03-24T01:31:33.980Z,88.964844
2019-03-24T01:31:45.733Z,88.861084
2019-03-24T01:31:57.477Z,88.861084
2019-03-24T01:32:09.260Z,88.861084
2019-03-24T01:32:21.030Z,88.861084
2019-03-24T01:32:32.799Z,88.757324
2019-03-24T01:32:44.573Z,88.757324
2019-03-24T01:32:56.343Z,88.757324
2019-03-24T01:33:08.118Z,88.861084
2019-03-24T01:33:19.898Z,88.861084
2019-03-24T01:33:31.668Z,88.861084
2019-03-24T01:33:43.447Z,88.861084
2019-03-24T01:33:55.215Z,88.861084
2019-03-24T01:34:06.990Z,88.861084
2019-03-24T01:34:18.757Z,88.861084
2019-03-24T01:34:30.516Z,88.861084
2019-03-24T01:34:42.348Z,88.861084
2019-03-24T01:34:54.101Z,88.757324
2019-03-24T01:35:05.893Z,88.861084
2019-03-24T01:35:17.688Z,88.861084
2019-03-24T01:35:29.443Z,88.861084
2019-03-24T01:35:41.241Z,88.861084
2019-03-24T01:35:52.987Z,88.964844
2019-03-24T01:36:04.763Z,88.964844
2019-03-24T01:36:17.913Z,88.964844
2019-03-24T01:36:29.671Z,88.964844
2019-03-24T01:36:41.454Z,88.964844
2019-03-24T01:36:53.250Z,88.964844
2019-03-24T01:37:05.039Z,88.861084
2019-03-24T01:37:16.843Z,88.861084
2019-03-24T01:37:28.606Z,88.757324
2019-03-24T01:37:40.408Z,88.757324
2019-03-24T01:37:52.175Z,88.653564
2019-03-24T01:38:03.958Z,88.653564
2019-03-24T01:38:15.741Z,88.549805
2019-03-24T01:38:27.492Z,88.446045
2019-03-24T01:38:39.253Z,88.446045
2019-03-24T01:38:51.018Z,88.342285
2019-03-24T01:39:02.787Z,88.342285
2019-03-24T01:39:14.570Z,88.342285
2019-03-24T01:39:26.359Z,88.446045
2019-03-24T01:39:38.107Z,88.446045
2019-03-24T01:39:49.888Z,88.446045
2019-03-24T01:40:01.647Z,88.446045
2019-03-24T01:40:13.408Z,88.446045
2019-03-24T01:40:25.186Z,88.446045
2019-03-24T01:40:36.979Z,88.446045
2019-03-24T01:40:48.793Z,88.549805
2019-03-24T01:41:00.584Z,88.549805
2019-03-24T01:41:12.328Z,88.549805
2019-03-24T01:41:24.096Z,88.549805
2019-03-24T01:41:35.877Z,88.653564
2019-03-24T01:41:47.657Z,88.757324
2019-03-24T01:41:59.411Z,88.793945
2019-03-24T01:42:11.154Z,88.897705
2019-03-24T01:42:22.938Z,88.897705
2019-03-24T01:42:34.722Z,89.001465
2019-03-24T01:42:46.483Z,89.001465
2019-03-24T01:42:58.256Z,89.001465
2019-03-24T01:43:10.038Z,89.068604
2019-03-24T01:43:21.848Z,89.105225
2019-03-24T01:43:33.627Z,89.105225
2019-03-24T01:43:45.393Z,89.172363
2019-03-24T01:43:57.154Z,89.172363
2019-03-24T01:44:08.915Z,89.276123
2019-03-24T01:44:20.688Z,89.276123
2019-03-24T01:44:32.458Z,89.276123
2019-03-24T01:44:44.205Z,89.276123
2019-03-24T01:44:55.977Z,89.276123
2019-03-24T01:45:07.736Z,89.379883
2019-03-24T01:45:19.493Z,89.379883
2019-03-24T01:45:31.290Z,89.379883
2019-03-24T01:45:43.035Z,89.379883
2019-03-24T01:45:58.724Z,89.379883
2019-03-24T01:46:07.517Z,89.276123
2019-03-24T01:46:19.301Z,89.172363
2019-03-24T01:46:31.085Z,89.172363
2019-03-24T01:46:42.854Z,89.172363
2019-03-24T01:46:54.624Z,89.172363
2019-03-24T01:47:06.527Z,89.172363
2019-03-24T01:47:18.287Z,89.068604
2019-03-24T01:47:30.074Z,89.068604
2019-03-24T01:47:41.839Z,88.964844
2019-03-24T01:47:53.617Z,89.068604
2019-03-24T01:48:05.415Z,89.068604
2019-03-24T01:48:17.189Z,89.068604
2019-03-24T01:48:28.934Z,89.105225
2019-03-24T01:48:40.742Z,89.068604
2019-03-24T01:48:52.484Z,89.105225
2019-03-24T01:49:04.256Z,89.172363
2019-03-24T01:49:16.029Z,89.172363
2019-03-24T01:49:27.789Z,89.172363
2019-03-24T01:49:39.567Z,89.172363
2019-03-24T01:49:51.403Z,89.208984
2019-03-24T01:50:03.102Z,89.208984
2019-03-24T01:50:14.859Z,89.208984
2019-03-24T01:50:26.630Z,89.312744
2019-03-24T01:50:38.410Z,89.312744
2019-03-24T01:50:50.166Z,89.312744
2019-03-24T01:51:01.915Z,89.312744
2019-03-24T01:51:13.666Z,89.276123
2019-03-24T01:51:25.457Z,89.312744
2019-03-24T01:51:37.214Z,89.312744
2019-03-24T01:51:48.956Z,89.312744
2019-03-24T01:52:00.730Z,89.312744
2019-03-24T01:52:13.527Z,89.416504
2019-03-24T01:52:25.319Z,89.416504
2019-03-24T01:52:37.103Z,89.416504
2019-03-24T01:52:48.891Z,89.416504
2019-03-24T01:53:00.642Z,89.416504
2019-03-24T01:53:12.462Z,89.416504
2019-03-24T01:53:24.216Z,89.520264
2019-03-24T01:53:35.995Z,89.416504
2019-03-24T01:53:47.765Z,89.416504
2019-03-24T01:53:59.544Z,89.416504
2019-03-24T01:54:11.334Z,89.416504
2019-03-24T01:54:23.108Z,89.416504
2019-03-24T01:54:34.858Z,89.416504
2019-03-24T01:54:46.659Z,89.416504
2019-03-24T01:54:58.435Z,89.416504
2019-03-24T01:55:10.223Z,89.416504
2019-03-24T01:55:22.011Z,89.416504
2019-03-24T01:55:33.779Z,89.520264
2019-03-24T01:55:45.558Z,89.520264
2019-03-24T01:55:57.328Z,89.520264
2019-03-24T01:56:09.087Z,89.624023
2019-03-24T01:56:20.864Z,89.624023
2019-03-24T01:56:32.642Z,89.624023
2019-03-24T01:56:44.436Z,89.624023
2019-03-24T01:56:56.205Z,89.727783
2019-03-24T01:57:07.978Z,89.727783
2019-03-24T01:57:19.761Z,89.727783
2019-03-24T01:57:31.535Z,89.831543
2019-03-24T01:57:43.278Z,89.831543
2019-03-24T01:57:55.040Z,89.831543
2019-03-24T01:58:06.831Z,89.831543
2019-03-24T01:58:18.642Z,89.935303
2019-03-24T01:58:30.430Z,89.831543
2019-03-24T01:58:42.191Z,89.935303
2019-03-24T01:58:53.952Z,89.831543
2019-03-24T01:59:05.735Z,89.935303
2019-03-24T01:59:17.490Z,89.935303
2019-03-24T01:59:29.276Z,89.935303
2019-03-24T01:59:41.036Z,89.935303
2019-03-24T01:59:52.801Z,89.831543
2019-03-24T02:00:04.549Z,89.831543
2019-03-24T02:00:16.328Z,89.831543
2019-03-24T02:00:28.096Z,89.831543
2019-03-24T02:00:39.845Z,89.727783
2019-03-24T02:00:51.634Z,89.727783
2019-03-24T02:01:03.413Z,89.727783
2019-03-24T02:01:15.205Z,89.727783
2019-03-24T02:01:26.988Z,89.727783
2019-03-24T02:01:38.747Z,89.727783
2019-03-24T02:01:50.634Z,89.727783
2019-03-24T02:02:02.398Z,89.727783
2019-03-24T02:02:14.165Z,89.727783
2019-03-24T02:02:25.948Z,89.727783
2019-03-24T02:02:37.733Z,89.727783
2019-03-24T02:02:49.500Z,89.624023
2019-03-24T02:03:01.277Z,89.520264
2019-03-24T02:03:13.041Z,89.416504
2019-03-24T02:03:24.802Z,89.312744
2019-03-24T02:03:36.566Z,89.208984
2019-03-24T02:03:48.331Z,89.208984
2019-03-24T02:04:00.096Z,89.208984
2019-03-24T02:04:11.861Z,89.312744
2019-03-24T02:04:23.655Z,89.459229
2019-03-24T02:04:35.437Z,89.666748
2019-03-24T02:04:47.190Z,89.770508
2019-03-24T02:04:58.974Z,89.874268
2019-03-24T02:05:10.743Z,90.081787
2019-03-24T02:05:22.491Z,90.185547
2019-03-24T02:05:34.269Z,90.289307
2019-03-24T02:05:46.044Z,90.393066
2019-03-24T02:05:57.789Z,90.496826
2019-03-24T02:06:09.566Z,90.600586
2019-03-24T02:06:21.342Z,90.600586
2019-03-24T02:06:33.079Z,90.704346
2019-03-24T02:06:44.824Z,90.704346
2019-03-24T02:06:56.630Z,90.808105
2019-03-24T02:07:08.397Z,90.911865
2019-03-24T02:07:20.212Z,90.911865
2019-03-24T02:07:31.987Z,91.015625
2019-03-24T02:07:43.780Z,91.05835
2019-03-24T02:07:55.526Z,91.162109
2019-03-24T02:08:07.319Z,91.265869
2019-03-24T02:08:19.079Z,91.265869
2019-03-24T02:08:30.845Z,91.369629
2019-03-24T02:08:42.599Z,91.473389
2019-03-24T02:08:55.427Z,91.577148
2019-03-24T02:09:07.177Z,91.577148
2019-03-24T02:09:18.962Z,91.680908
2019-03-24T02:09:30.718Z,91.784668
2019-03-24T02:09:42.471Z,91.888428
2019-03-24T02:09:54.256Z,91.992188
2019-03-24T02:10:06.023Z,92.095947
2019-03-24T02:10:17.796Z,92.095947
2019-03-24T02:10:29.575Z,92.095947
2019-03-24T02:10:41.338Z,92.199707
2019-03-24T02:10:53.077Z,92.199707
2019-03-24T02:11:04.862Z,92.199707
2019-03-24T02:11:16.655Z,92.199707
2019-03-24T02:11:28.435Z,92.199707
2019-03-24T02:11:40.205Z,92.199707
2019-03-24T02:11:52.941Z,92.303467
2019-03-24T02:12:04.734Z,92.303467
2019-03-24T02:12:16.516Z,92.303467
2019-03-24T02:12:28.309Z,92.303467
2019-03-24T02:12:40.062Z,92.303467
2019-03-24T02:12:51.819Z,92.260742
2019-03-24T02:13:03.565Z,92.260742
2019-03-24T02:13:15.336Z,92.260742
2019-03-24T02:13:27.109Z,92.260742
2019-03-24T02:13:38.852Z,92.156982
2019-03-24T02:13:50.646Z,92.156982
2019-03-24T02:14:02.416Z,92.156982
2019-03-24T02:14:14.193Z,92.156982
2019-03-24T02:14:25.961Z,92.156982
2019-03-24T02:14:37.743Z,92.156982
2019-03-24T02:14:49.518Z,92.053223
2019-03-24T02:15:01.273Z,92.053223